sensor_id;sensor_type;location;lat;lon;timestamp;temperature;humidity
13686;DHT22;6915;48.296;8.874;2022-07-22T00:02:10;16.80;99.90
13686;DHT22;6915;48.296;8.874;2022-07-22T00:04:37;16.80;99.90
13686;DHT22;6915;48.296;8.874;2022-07-22T00:07:04;16.60;99.90
13686;DHT22;6915;48.296;8.874;2022-07-22T00:09:31;16.50;99.90
13686;DHT22;6915;48.296;8.874;2022-07-22T00:11:59;16.60;99.90
13686;DHT22;6915;48.296;8.874;2022-07-22T00:14:26;16.60;99.90
13686;DHT22;6915;48.296;8.874;2022-07-22T00:16:54;16.50;99.90
13686;DHT22;6915;48.296;8.874;2022-07-22T00:19:21;16.50;99.90
13686;DHT22;6915;48.296;8.874;2022-07-22T00:21:50;16.40;99.90
13686;DHT22;6915;48.296;8.874;2022-07-22T00:24:17;16.40;99.90
13686;DHT22;6915;48.296;8.874;2022-07-22T00:26:44;16.40;99.90
13686;DHT22;6915;48.296;8.874;2022-07-22T00:29:11;16.50;99.90
13686;DHT22;6915;48.296;8.874;2022-07-22T00:31:38;16.50;99.90
13686;DHT22;6915;48.296;8.874;2022-07-22T00:34:06;16.50;99.90
13686;DHT22;6915;48.296;8.874;2022-07-22T00:36:33;16.40;99.90
13686;DHT22;6915;48.296;8.874;2022-07-22T00:39:00;16.20;99.90
13686;DHT22;6915;48.296;8.874;2022-07-22T00:41:27;16.20;99.90
13686;DHT22;6915;48.296;8.874;2022-07-22T00:43:57;16.20;99.90
13686;DHT22;6915;48.296;8.874;2022-07-22T00:46:25;16.20;99.90
13686;DHT22;6915;48.296;8.874;2022-07-22T00:48:54;16.10;99.90
13686;DHT22;6915;48.296;8.874;2022-07-22T00:51:23;16.20;99.90
13686;DHT22;6915;48.296;8.874;2022-07-22T00:53:51;16.00;99.90
13686;DHT22;6915;48.296;8.874;2022-07-22T00:56:19;15.90;99.90
13686;DHT22;6915;48.296;8.874;2022-07-22T00:58:48;15.90;99.90
13686;DHT22;6915;48.296;8.874;2022-07-22T01:01:15;16.00;99.90
13686;DHT22;6915;48.296;8.874;2022-07-22T01:03:42;15.90;99.90
13686;DHT22;6915;48.296;8.874;2022-07-22T01:06:10;16.00;99.90
13686;DHT22;6915;48.296;8.874;2022-07-22T01:08:39;16.00;99.90
13686;DHT22;6915;48.296;8.874;2022-07-22T01:11:07;16.00;99.90
13686;DHT22;6915;48.296;8.874;2022-07-22T01:13:34;16.00;99.90
13686;DHT22;6915;48.296;8.874;2022-07-22T01:16:02;16.00;99.90
13686;DHT22;6915;48.296;8.874;2022-07-22T01:18:29;15.90;99.90
13686;DHT22;6915;48.296;8.874;2022-07-22T01:20:57;15.70;99.90
13686;DHT22;6915;48.296;8.874;2022-07-22T01:23:24;15.80;99.90
13686;DHT22;6915;48.296;8.874;2022-07-22T01:25:51;15.70;99.90
13686;DHT22;6915;48.296;8.874;2022-07-22T01:28:18;15.70;99.90
13686;DHT22;6915;48.296;8.874;2022-07-22T01:30:45;15.80;99.90
13686;DHT22;6915;48.296;8.874;2022-07-22T01:33:12;15.80;99.90
13686;DHT22;6915;48.296;8.874;2022-07-22T01:35:39;15.80;99.90
13686;DHT22;6915;48.296;8.874;2022-07-22T01:38:08;15.60;99.90
13686;DHT22;6915;48.296;8.874;2022-07-22T01:40:35;15.60;99.90
13686;DHT22;6915;48.296;8.874;2022-07-22T01:43:02;15.50;99.90
13686;DHT22;6915;48.296;8.874;2022-07-22T01:45:29;15.40;99.90
13686;DHT22;6915;48.296;8.874;2022-07-22T01:47:56;15.30;99.90
13686;DHT22;6915;48.296;8.874;2022-07-22T01:50:23;15.30;99.90
13686;DHT22;6915;48.296;8.874;2022-07-22T01:52:50;15.20;99.90
13686;DHT22;6915;48.296;8.874;2022-07-22T01:55:19;15.20;99.90
13686;DHT22;6915;48.296;8.874;2022-07-22T01:57:46;15.20;99.90
13686;DHT22;6915;48.296;8.874;2022-07-22T02:00:14;15.40;99.90
13686;DHT22;6915;48.296;8.874;2022-07-22T02:02:41;15.40;99.90
13686;DHT22;6915;48.296;8.874;2022-07-22T02:05:08;15.40;99.90
13686;DHT22;6915;48.296;8.874;2022-07-22T02:07:35;15.40;99.90
13686;DHT22;6915;48.296;8.874;2022-07-22T02:10:03;15.20;99.90
13686;DHT22;6915;48.296;8.874;2022-07-22T02:12:31;15.20;99.90
13686;DHT22;6915;48.296;8.874;2022-07-22T02:14:58;15.30;99.90
13686;DHT22;6915;48.296;8.874;2022-07-22T02:17:25;15.20;99.90
13686;DHT22;6915;48.296;8.874;2022-07-22T02:19:52;15.10;99.90
13686;DHT22;6915;48.296;8.874;2022-07-22T02:22:19;15.10;99.90
13686;DHT22;6915;48.296;8.874;2022-07-22T02:24:46;15.10;99.90
13686;DHT22;6915;48.296;8.874;2022-07-22T02:27:13;14.90;99.90
13686;DHT22;6915;48.296;8.874;2022-07-22T02:29:41;15.00;99.90
13686;DHT22;6915;48.296;8.874;2022-07-22T02:32:08;15.00;99.90
13686;DHT22;6915;48.296;8.874;2022-07-22T02:34:35;14.90;99.90
13686;DHT22;6915;48.296;8.874;2022-07-22T02:37:02;14.90;99.90
13686;DHT22;6915;48.296;8.874;2022-07-22T02:39:29;14.90;99.90
13686;DHT22;6915;48.296;8.874;2022-07-22T02:41:56;14.80;99.90
13686;DHT22;6915;48.296;8.874;2022-07-22T02:44:23;14.60;99.90
13686;DHT22;6915;48.296;8.874;2022-07-22T02:46:51;14.70;99.90
13686;DHT22;6915;48.296;8.874;2022-07-22T02:49:18;14.60;99.90
13686;DHT22;6915;48.296;8.874;2022-07-22T02:51:45;14.60;99.90
13686;DHT22;6915;48.296;8.874;2022-07-22T02:54:12;14.50;99.90
13686;DHT22;6915;48.296;8.874;2022-07-22T02:56:39;14.50;99.90
13686;DHT22;6915;48.296;8.874;2022-07-22T02:59:06;14.50;99.90
13686;DHT22;6915;48.296;8.874;2022-07-22T03:01:33;14.80;99.90
13686;DHT22;6915;48.296;8.874;2022-07-22T03:04:01;14.60;99.90
13686;DHT22;6915;48.296;8.874;2022-07-22T03:06:28;14.60;99.90
13686;DHT22;6915;48.296;8.874;2022-07-22T03:08:55;14.50;99.90
13686;DHT22;6915;48.296;8.874;2022-07-22T03:11:22;14.50;99.90
13686;DHT22;6915;48.296;8.874;2022-07-22T03:13:49;14.50;99.90
13686;DHT22;6915;48.296;8.874;2022-07-22T03:16:15;14.50;99.90
13686;DHT22;6915;48.296;8.874;2022-07-22T03:18:42;14.40;99.90
13686;DHT22;6915;48.296;8.874;2022-07-22T03:21:11;14.50;99.90
13686;DHT22;6915;48.296;8.874;2022-07-22T03:23:37;14.50;99.90
13686;DHT22;6915;48.296;8.874;2022-07-22T03:26:04;14.40;99.90
13686;DHT22;6915;48.296;8.874;2022-07-22T03:28:31;14.40;99.90
13686;DHT22;6915;48.296;8.874;2022-07-22T03:30:58;14.40;99.90
13686;DHT22;6915;48.296;8.874;2022-07-22T03:33:25;14.20;99.90
13686;DHT22;6915;48.296;8.874;2022-07-22T03:35:52;14.10;99.90
13686;DHT22;6915;48.296;8.874;2022-07-22T03:38:20;13.90;99.90
13686;DHT22;6915;48.296;8.874;2022-07-22T03:40:47;13.90;99.90
13686;DHT22;6915;48.296;8.874;2022-07-22T03:43:14;13.90;99.90
13686;DHT22;6915;48.296;8.874;2022-07-22T03:45:41;14.00;99.90
13686;DHT22;6915;48.296;8.874;2022-07-22T03:48:08;14.10;99.90
13686;DHT22;6915;48.296;8.874;2022-07-22T03:50:35;14.00;99.90
13686;DHT22;6915;48.296;8.874;2022-07-22T03:53:02;14.10;99.90
13686;DHT22;6915;48.296;8.874;2022-07-22T03:55:31;14.10;99.90
13686;DHT22;6915;48.296;8.874;2022-07-22T03:57:58;14.10;99.90
13686;DHT22;6915;48.296;8.874;2022-07-22T04:00:24;14.00;99.90
13686;DHT22;6915;48.296;8.874;2022-07-22T04:02:51;14.20;99.90
13686;DHT22;6915;48.296;8.874;2022-07-22T04:05:18;14.20;99.90
13686;DHT22;6915;48.296;8.874;2022-07-22T04:07:45;14.10;99.90
13686;DHT22;6915;48.296;8.874;2022-07-22T04:10:12;14.10;99.90
13686;DHT22;6915;48.296;8.874;2022-07-22T04:12:40;14.10;99.90
13686;DHT22;6915;48.296;8.874;2022-07-22T04:15:08;14.30;99.90
13686;DHT22;6915;48.296;8.874;2022-07-22T04:17:35;14.40;99.90
13686;DHT22;6915;48.296;8.874;2022-07-22T04:20:03;14.80;99.90
13686;DHT22;6915;48.296;8.874;2022-07-22T04:22:31;15.30;99.90
13686;DHT22;6915;48.296;8.874;2022-07-22T04:24:57;15.80;99.90
13686;DHT22;6915;48.296;8.874;2022-07-22T04:27:24;16.40;99.90
13686;DHT22;6915;48.296;8.874;2022-07-22T04:29:53;17.00;99.90
13686;DHT22;6915;48.296;8.874;2022-07-22T04:32:19;17.40;99.90
13686;DHT22;6915;48.296;8.874;2022-07-22T04:34:47;17.80;61.40
13686;DHT22;6915;48.296;8.874;2022-07-22T04:37:14;17.90;16.90
13686;DHT22;6915;48.296;8.874;2022-07-22T04:39:41;18.20;1.00
13686;DHT22;6915;48.296;8.874;2022-07-22T04:42:07;18.70;1.00
13686;DHT22;6915;48.296;8.874;2022-07-22T04:44:34;19.20;1.00
13686;DHT22;6915;48.296;8.874;2022-07-22T04:47:03;19.70;1.00
13686;DHT22;6915;48.296;8.874;2022-07-22T04:49:30;19.90;1.00
13686;DHT22;6915;48.296;8.874;2022-07-22T04:51:57;20.30;1.00
13686;DHT22;6915;48.296;8.874;2022-07-22T04:54:24;21.00;1.00
13686;DHT22;6915;48.296;8.874;2022-07-22T04:56:51;21.00;99.90
13686;DHT22;6915;48.296;8.874;2022-07-22T04:59:17;20.70;1.00
13686;DHT22;6915;48.296;8.874;2022-07-22T05:01:44;20.70;1.00
13686;DHT22;6915;48.296;8.874;2022-07-22T05:04:13;20.60;1.00
13686;DHT22;6915;48.296;8.874;2022-07-22T05:06:39;20.40;1.00
13686;DHT22;6915;48.296;8.874;2022-07-22T05:09:06;20.50;1.00
13686;DHT22;6915;48.296;8.874;2022-07-22T05:11:33;21.10;1.00
13686;DHT22;6915;48.296;8.874;2022-07-22T05:14:00;21.40;99.90
13686;DHT22;6915;48.296;8.874;2022-07-22T05:16:27;21.50;99.90
13686;DHT22;6915;48.296;8.874;2022-07-22T05:18:54;21.50;99.90
13686;DHT22;6915;48.296;8.874;2022-07-22T05:21:22;21.90;1.00
13686;DHT22;6915;48.296;8.874;2022-07-22T05:23:49;22.10;1.00
13686;DHT22;6915;48.296;8.874;2022-07-22T05:26:16;22.50;99.90
13686;DHT22;6915;48.296;8.874;2022-07-22T05:28:43;22.90;1.00
13686;DHT22;6915;48.296;8.874;2022-07-22T05:31:10;23.00;99.90
13686;DHT22;6915;48.296;8.874;2022-07-22T05:33:37;23.30;99.90
13686;DHT22;6915;48.296;8.874;2022-07-22T05:36:05;23.60;1.00
13686;DHT22;6915;48.296;8.874;2022-07-22T05:38:33;23.60;1.00
13686;DHT22;6915;48.296;8.874;2022-07-22T05:41:00;23.00;1.00
13686;DHT22;6915;48.296;8.874;2022-07-22T05:43:27;22.70;1.00
13686;DHT22;6915;48.296;8.874;2022-07-22T05:45:54;22.60;99.90
13686;DHT22;6915;48.296;8.874;2022-07-22T05:48:21;22.60;99.90
13686;DHT22;6915;48.296;8.874;2022-07-22T05:50:48;22.80;99.90
13686;DHT22;6915;48.296;8.874;2022-07-22T05:53:15;23.00;99.90
13686;DHT22;6915;48.296;8.874;2022-07-22T05:55:44;22.80;1.00
13686;DHT22;6915;48.296;8.874;2022-07-22T05:58:10;23.00;1.00
13686;DHT22;6915;48.296;8.874;2022-07-22T06:00:37;23.20;99.90
13686;DHT22;6915;48.296;8.874;2022-07-22T06:03:05;23.20;1.00
13686;DHT22;6915;48.296;8.874;2022-07-22T06:05:32;23.00;9.90
13686;DHT22;6915;48.296;8.874;2022-07-22T06:08:01;22.90;1.00
13686;DHT22;6915;48.296;8.874;2022-07-22T06:10:27;22.80;1.00
13686;DHT22;6915;48.296;8.874;2022-07-22T06:12:56;22.90;99.90
13686;DHT22;6915;48.296;8.874;2022-07-22T06:15:23;22.70;1.00
13686;DHT22;6915;48.296;8.874;2022-07-22T06:17:50;22.70;1.00
13686;DHT22;6915;48.296;8.874;2022-07-22T06:20:17;22.60;99.90
13686;DHT22;6915;48.296;8.874;2022-07-22T06:22:44;22.80;1.00
13686;DHT22;6915;48.296;8.874;2022-07-22T06:25:11;22.90;1.00
13686;DHT22;6915;48.296;8.874;2022-07-22T06:27:38;22.90;1.00
13686;DHT22;6915;48.296;8.874;2022-07-22T06:30:08;23.00;1.00
13686;DHT22;6915;48.296;8.874;2022-07-22T06:32:35;22.80;1.00
13686;DHT22;6915;48.296;8.874;2022-07-22T06:35:02;22.90;1.00
13686;DHT22;6915;48.296;8.874;2022-07-22T06:37:29;22.80;1.00
13686;DHT22;6915;48.296;8.874;2022-07-22T06:39:56;23.10;1.00
13686;DHT22;6915;48.296;8.874;2022-07-22T06:42:23;23.20;1.00
13686;DHT22;6915;48.296;8.874;2022-07-22T06:44:50;22.70;1.00
13686;DHT22;6915;48.296;8.874;2022-07-22T06:47:19;22.50;99.90
13686;DHT22;6915;48.296;8.874;2022-07-22T06:49:46;22.60;1.00
13686;DHT22;6915;48.296;8.874;2022-07-22T06:52:13;22.40;99.90
13686;DHT22;6915;48.296;8.874;2022-07-22T06:54:40;22.30;99.90
13686;DHT22;6915;48.296;8.874;2022-07-22T06:57:07;22.20;99.90
13686;DHT22;6915;48.296;8.874;2022-07-22T06:59:34;22.20;1.00
13686;DHT22;6915;48.296;8.874;2022-07-22T07:02:01;22.30;1.00
13686;DHT22;6915;48.296;8.874;2022-07-22T07:04:29;22.30;1.00
13686;DHT22;6915;48.296;8.874;2022-07-22T07:06:56;22.70;99.90
13686;DHT22;6915;48.296;8.874;2022-07-22T07:09:23;22.80;99.90
13686;DHT22;6915;48.296;8.874;2022-07-22T07:11:50;23.10;99.90
13686;DHT22;6915;48.296;8.874;2022-07-22T07:14:17;23.00;99.90
13686;DHT22;6915;48.296;8.874;2022-07-22T07:16:43;23.20;99.90
13686;DHT22;6915;48.296;8.874;2022-07-22T07:19:10;23.30;99.90
13686;DHT22;6915;48.296;8.874;2022-07-22T07:21:39;23.10;99.90
13686;DHT22;6915;48.296;8.874;2022-07-22T07:24:06;23.50;99.90
13686;DHT22;6915;48.296;8.874;2022-07-22T07:26:33;23.60;99.90
13686;DHT22;6915;48.296;8.874;2022-07-22T07:29:00;23.50;1.00
13686;DHT22;6915;48.296;8.874;2022-07-22T07:31:27;23.70;99.90
13686;DHT22;6915;48.296;8.874;2022-07-22T07:33:54;23.60;1.00
13686;DHT22;6915;48.296;8.874;2022-07-22T07:36:21;23.60;99.90
13686;DHT22;6915;48.296;8.874;2022-07-22T07:38:50;23.80;1.00
13686;DHT22;6915;48.296;8.874;2022-07-22T07:41:17;24.00;99.90
13686;DHT22;6915;48.296;8.874;2022-07-22T07:43:44;24.00;57.50
13686;DHT22;6915;48.296;8.874;2022-07-22T07:46:11;24.30;1.00
13686;DHT22;6915;48.296;8.874;2022-07-22T07:48:38;24.40;1.00
13686;DHT22;6915;48.296;8.874;2022-07-22T07:51:06;24.40;1.00
13686;DHT22;6915;48.296;8.874;2022-07-22T07:53:33;24.60;1.00
13686;DHT22;6915;48.296;8.874;2022-07-22T07:56:02;24.60;1.00
13686;DHT22;6915;48.296;8.874;2022-07-22T07:58:29;24.80;1.00
13686;DHT22;6915;48.296;8.874;2022-07-22T08:00:56;24.50;1.00
13686;DHT22;6915;48.296;8.874;2022-07-22T08:03:23;24.70;1.00
13686;DHT22;6915;48.296;8.874;2022-07-22T08:05:50;24.80;1.00
13686;DHT22;6915;48.296;8.874;2022-07-22T08:08:17;24.80;1.00
13686;DHT22;6915;48.296;8.874;2022-07-22T08:10:44;25.20;1.00
13686;DHT22;6915;48.296;8.874;2022-07-22T08:13:13;25.30;99.90
13686;DHT22;6915;48.296;8.874;2022-07-22T08:15:40;25.40;1.00
13686;DHT22;6915;48.296;8.874;2022-07-22T08:18:07;25.40;1.00
13686;DHT22;6915;48.296;8.874;2022-07-22T08:20:34;25.40;1.00
13686;DHT22;6915;48.296;8.874;2022-07-22T08:23:02;25.50;99.90
13686;DHT22;6915;48.296;8.874;2022-07-22T08:25:29;25.70;99.90
13686;DHT22;6915;48.296;8.874;2022-07-22T08:27:56;25.50;1.00
13686;DHT22;6915;48.296;8.874;2022-07-22T08:30:25;25.80;1.00
13686;DHT22;6915;48.296;8.874;2022-07-22T08:32:54;25.90;1.00
13686;DHT22;6915;48.296;8.874;2022-07-22T08:35:21;26.10;1.00
13686;DHT22;6915;48.296;8.874;2022-07-22T08:37:49;26.50;99.90
13686;DHT22;6915;48.296;8.874;2022-07-22T08:40:16;26.80;99.90
13686;DHT22;6915;48.296;8.874;2022-07-22T08:42:45;26.80;1.00
13686;DHT22;6915;48.296;8.874;2022-07-22T08:45:13;26.70;99.90
13686;DHT22;6915;48.296;8.874;2022-07-22T08:47:43;27.00;99.90
13686;DHT22;6915;48.296;8.874;2022-07-22T08:50:11;26.90;1.00
13686;DHT22;6915;48.296;8.874;2022-07-22T08:52:38;27.00;1.00
13686;DHT22;6915;48.296;8.874;2022-07-22T08:55:06;26.80;1.00
13686;DHT22;6915;48.296;8.874;2022-07-22T08:57:34;26.80;1.00
13686;DHT22;6915;48.296;8.874;2022-07-22T09:00:09;26.90;99.90
13686;DHT22;6915;48.296;8.874;2022-07-22T09:02:38;26.70;1.00
13686;DHT22;6915;48.296;8.874;2022-07-22T09:05:09;27.20;99.90
13686;DHT22;6915;48.296;8.874;2022-07-22T09:07:39;27.60;44.50
13686;DHT22;6915;48.296;8.874;2022-07-22T09:10:08;27.80;1.00
13686;DHT22;6915;48.296;8.874;2022-07-22T09:12:50;27.80;31.00
13686;DHT22;6915;48.296;8.874;2022-07-22T09:15:25;27.70;1.00
13686;DHT22;6915;48.296;8.874;2022-07-22T09:17:53;27.90;99.90
13686;DHT22;6915;48.296;8.874;2022-07-22T09:20:21;28.10;1.00
13686;DHT22;6915;48.296;8.874;2022-07-22T09:22:49;28.00;99.90
13686;DHT22;6915;48.296;8.874;2022-07-22T09:25:27;28.10;1.00
13686;DHT22;6915;48.296;8.874;2022-07-22T09:27:56;28.60;1.00
13686;DHT22;6915;48.296;8.874;2022-07-22T09:30:36;28.90;1.00
13686;DHT22;6915;48.296;8.874;2022-07-22T09:33:05;28.50;1.00
13686;DHT22;6915;48.296;8.874;2022-07-22T09:35:34;28.30;1.00
13686;DHT22;6915;48.296;8.874;2022-07-22T09:38:03;28.10;1.00
13686;DHT22;6915;48.296;8.874;2022-07-22T09:40:32;28.30;99.90
13686;DHT22;6915;48.296;8.874;2022-07-22T09:43:01;28.40;1.00
13686;DHT22;6915;48.296;8.874;2022-07-22T09:45:30;28.60;99.90
13686;DHT22;6915;48.296;8.874;2022-07-22T09:47:58;28.70;1.00
13686;DHT22;6915;48.296;8.874;2022-07-22T09:50:27;28.70;88.90
13686;DHT22;6915;48.296;8.874;2022-07-22T09:52:58;29.00;1.00
13686;DHT22;6915;48.296;8.874;2022-07-22T09:55:27;29.10;1.00
13686;DHT22;6915;48.296;8.874;2022-07-22T09:57:55;28.80;1.00
13686;DHT22;6915;48.296;8.874;2022-07-22T10:00:24;28.60;1.00
13686;DHT22;6915;48.296;8.874;2022-07-22T10:02:54;28.60;99.90
13686;DHT22;6915;48.296;8.874;2022-07-22T10:05:23;28.50;59.60
13686;DHT22;6915;48.296;8.874;2022-07-22T10:07:51;28.90;97.00
13686;DHT22;6915;48.296;8.874;2022-07-22T10:10:21;29.10;1.00
13686;DHT22;6915;48.296;8.874;2022-07-22T10:12:49;29.20;20.10
13686;DHT22;6915;48.296;8.874;2022-07-22T10:15:17;29.20;34.50
13686;DHT22;6915;48.296;8.874;2022-07-22T10:17:46;29.20;1.00
13686;DHT22;6915;48.296;8.874;2022-07-22T10:20:17;29.20;1.00
13686;DHT22;6915;48.296;8.874;2022-07-22T10:22:53;29.10;1.00
13686;DHT22;6915;48.296;8.874;2022-07-22T10:25:22;29.10;1.00
13686;DHT22;6915;48.296;8.874;2022-07-22T10:27:52;29.30;1.00
13686;DHT22;6915;48.296;8.874;2022-07-22T10:30:21;29.10;1.00
13686;DHT22;6915;48.296;8.874;2022-07-22T10:33:08;29.50;1.00
13686;DHT22;6915;48.296;8.874;2022-07-22T10:35:37;29.80;99.90
13686;DHT22;6915;48.296;8.874;2022-07-22T10:38:15;29.80;99.90
13686;DHT22;6915;48.296;8.874;2022-07-22T10:40:51;30.00;99.90
13686;DHT22;6915;48.296;8.874;2022-07-22T10:43:20;30.40;17.30
13686;DHT22;6915;48.296;8.874;2022-07-22T10:45:50;30.80;1.00
13686;DHT22;6915;48.296;8.874;2022-07-22T10:48:19;31.00;1.00
13686;DHT22;6915;48.296;8.874;2022-07-22T10:50:52;30.90;1.00
13686;DHT22;6915;48.296;8.874;2022-07-22T10:53:23;30.40;1.00
13686;DHT22;6915;48.296;8.874;2022-07-22T10:56:06;30.60;2.50
13686;DHT22;6915;48.296;8.874;2022-07-22T10:58:42;31.00;1.00
13686;DHT22;6915;48.296;8.874;2022-07-22T11:01:10;31.20;1.00
13686;DHT22;6915;48.296;8.874;2022-07-22T11:03:39;31.20;1.00
13686;DHT22;6915;48.296;8.874;2022-07-22T11:06:15;31.00;1.00
13686;DHT22;6915;48.296;8.874;2022-07-22T11:08:44;31.00;1.00
13686;DHT22;6915;48.296;8.874;2022-07-22T11:11:13;30.90;1.00
13686;DHT22;6915;48.296;8.874;2022-07-22T11:13:41;30.80;1.00
13686;DHT22;6915;48.296;8.874;2022-07-22T11:16:20;31.00;1.00
13686;DHT22;6915;48.296;8.874;2022-07-22T11:18:50;31.40;1.00
13686;DHT22;6915;48.296;8.874;2022-07-22T11:21:20;31.70;1.00
13686;DHT22;6915;48.296;8.874;2022-07-22T11:23:49;30.90;1.00
13686;DHT22;6915;48.296;8.874;2022-07-22T11:26:19;30.50;1.00
13686;DHT22;6915;48.296;8.874;2022-07-22T11:28:46;30.70;1.00
13686;DHT22;6915;48.296;8.874;2022-07-22T11:31:16;30.90;1.00
13686;DHT22;6915;48.296;8.874;2022-07-22T11:33:43;30.80;1.00
13686;DHT22;6915;48.296;8.874;2022-07-22T11:36:11;31.10;1.00
13686;DHT22;6915;48.296;8.874;2022-07-22T11:38:46;31.50;1.00
13686;DHT22;6915;48.296;8.874;2022-07-22T11:41:15;32.00;1.00
13686;DHT22;6915;48.296;8.874;2022-07-22T11:43:44;32.50;1.00
13686;DHT22;6915;48.296;8.874;2022-07-22T11:46:12;32.90;1.00
13686;DHT22;6915;48.296;8.874;2022-07-22T11:48:39;33.20;1.00
13686;DHT22;6915;48.296;8.874;2022-07-22T11:51:08;33.00;1.00
13686;DHT22;6915;48.296;8.874;2022-07-22T11:53:36;32.60;1.00
13686;DHT22;6915;48.296;8.874;2022-07-22T11:56:05;32.20;1.00
13686;DHT22;6915;48.296;8.874;2022-07-22T11:58:36;31.60;1.00
13686;DHT22;6915;48.296;8.874;2022-07-22T12:01:06;31.40;1.00
13686;DHT22;6915;48.296;8.874;2022-07-22T12:03:34;31.60;1.00
13686;DHT22;6915;48.296;8.874;2022-07-22T12:06:02;31.50;1.00
13686;DHT22;6915;48.296;8.874;2022-07-22T12:08:29;31.50;1.00
13686;DHT22;6915;48.296;8.874;2022-07-22T12:10:57;31.70;1.00
13686;DHT22;6915;48.296;8.874;2022-07-22T12:13:31;31.70;1.00
13686;DHT22;6915;48.296;8.874;2022-07-22T12:15:58;31.70;1.00
13686;DHT22;6915;48.296;8.874;2022-07-22T12:18:27;31.70;1.00
13686;DHT22;6915;48.296;8.874;2022-07-22T12:20:55;31.90;1.00
13686;DHT22;6915;48.296;8.874;2022-07-22T12:23:24;32.40;1.00
13686;DHT22;6915;48.296;8.874;2022-07-22T12:25:54;32.40;1.00
13686;DHT22;6915;48.296;8.874;2022-07-22T12:28:22;32.10;1.00
13686;DHT22;6915;48.296;8.874;2022-07-22T12:30:50;31.90;1.00
13686;DHT22;6915;48.296;8.874;2022-07-22T12:33:18;32.00;1.00
13686;DHT22;6915;48.296;8.874;2022-07-22T12:36:00;32.00;1.00
13686;DHT22;6915;48.296;8.874;2022-07-22T12:38:27;32.50;1.00
13686;DHT22;6915;48.296;8.874;2022-07-22T12:40:54;32.70;1.00
13686;DHT22;6915;48.296;8.874;2022-07-22T12:43:24;33.20;1.00
13686;DHT22;6915;48.296;8.874;2022-07-22T12:45:52;33.50;1.00
13686;DHT22;6915;48.296;8.874;2022-07-22T12:48:19;33.90;1.00
13686;DHT22;6915;48.296;8.874;2022-07-22T12:50:55;33.70;1.00
13686;DHT22;6915;48.296;8.874;2022-07-22T12:53:25;33.60;1.00
13686;DHT22;6915;48.296;8.874;2022-07-22T12:55:56;34.10;1.00
13686;DHT22;6915;48.296;8.874;2022-07-22T12:58:25;34.20;1.00
13686;DHT22;6915;48.296;8.874;2022-07-22T13:00:54;34.20;1.00
13686;DHT22;6915;48.296;8.874;2022-07-22T13:03:21;34.50;1.00
13686;DHT22;6915;48.296;8.874;2022-07-22T13:05:53;34.70;1.00
13686;DHT22;6915;48.296;8.874;2022-07-22T13:08:21;34.70;1.00
13686;DHT22;6915;48.296;8.874;2022-07-22T13:10:49;35.00;1.00
13686;DHT22;6915;48.296;8.874;2022-07-22T13:13:16;35.20;1.00
13686;DHT22;6915;48.296;8.874;2022-07-22T13:15:44;35.30;1.00
13686;DHT22;6915;48.296;8.874;2022-07-22T13:18:11;35.30;1.00
13686;DHT22;6915;48.296;8.874;2022-07-22T13:20:38;35.10;1.00
13686;DHT22;6915;48.296;8.874;2022-07-22T13:23:05;34.80;1.00
13686;DHT22;6915;48.296;8.874;2022-07-22T13:25:32;34.70;1.00
13686;DHT22;6915;48.296;8.874;2022-07-22T13:28:01;34.50;1.00
13686;DHT22;6915;48.296;8.874;2022-07-22T13:30:28;34.30;1.00
13686;DHT22;6915;48.296;8.874;2022-07-22T13:32:56;33.80;1.00
13686;DHT22;6915;48.296;8.874;2022-07-22T13:35:23;33.60;1.00
13686;DHT22;6915;48.296;8.874;2022-07-22T13:37:49;33.40;1.00
13686;DHT22;6915;48.296;8.874;2022-07-22T13:40:16;33.50;1.00
13686;DHT22;6915;48.296;8.874;2022-07-22T13:42:43;33.90;1.00
13686;DHT22;6915;48.296;8.874;2022-07-22T13:45:12;34.10;1.00
13686;DHT22;6915;48.296;8.874;2022-07-22T13:47:40;34.30;1.00
13686;DHT22;6915;48.296;8.874;2022-07-22T13:50:07;34.30;1.00
13686;DHT22;6915;48.296;8.874;2022-07-22T13:52:34;34.00;1.00
13686;DHT22;6915;48.296;8.874;2022-07-22T13:55:01;34.00;1.00
13686;DHT22;6915;48.296;8.874;2022-07-22T13:57:28;34.20;1.00
13686;DHT22;6915;48.296;8.874;2022-07-22T13:59:55;34.70;1.00
13686;DHT22;6915;48.296;8.874;2022-07-22T14:02:24;34.70;1.00
13686;DHT22;6915;48.296;8.874;2022-07-22T14:04:51;34.00;1.00
13686;DHT22;6915;48.296;8.874;2022-07-22T14:07:18;34.10;1.00
13686;DHT22;6915;48.296;8.874;2022-07-22T14:09:45;34.00;1.00
13686;DHT22;6915;48.296;8.874;2022-07-22T14:12:12;33.90;1.00
13686;DHT22;6915;48.296;8.874;2022-07-22T14:14:39;33.90;1.00
13686;DHT22;6915;48.296;8.874;2022-07-22T14:17:06;34.10;1.00
13686;DHT22;6915;48.296;8.874;2022-07-22T14:19:34;34.10;1.00
13686;DHT22;6915;48.296;8.874;2022-07-22T14:22:01;34.50;1.00
13686;DHT22;6915;48.296;8.874;2022-07-22T14:24:28;34.80;1.00
13686;DHT22;6915;48.296;8.874;2022-07-22T14:26:55;35.10;1.00
13686;DHT22;6915;48.296;8.874;2022-07-22T14:29:22;34.60;1.00
13686;DHT22;6915;48.296;8.874;2022-07-22T14:31:49;34.10;1.00
13686;DHT22;6915;48.296;8.874;2022-07-22T14:34:17;33.80;1.00
13686;DHT22;6915;48.296;8.874;2022-07-22T14:36:45;33.80;1.00
13686;DHT22;6915;48.296;8.874;2022-07-22T14:39:12;34.20;1.00
13686;DHT22;6915;48.296;8.874;2022-07-22T14:41:39;34.60;1.00
13686;DHT22;6915;48.296;8.874;2022-07-22T14:44:06;34.60;1.00
13686;DHT22;6915;48.296;8.874;2022-07-22T14:46:33;35.00;1.00
13686;DHT22;6915;48.296;8.874;2022-07-22T14:49:00;35.40;1.00
13686;DHT22;6915;48.296;8.874;2022-07-22T14:51:27;35.40;1.00
13686;DHT22;6915;48.296;8.874;2022-07-22T14:53:56;35.80;1.00
13686;DHT22;6915;48.296;8.874;2022-07-22T14:56:23;35.70;1.00
13686;DHT22;6915;48.296;8.874;2022-07-22T14:58:50;35.60;1.00
13686;DHT22;6915;48.296;8.874;2022-07-22T15:01:17;35.60;1.00
13686;DHT22;6915;48.296;8.874;2022-07-22T15:03:44;35.20;1.00
13686;DHT22;6915;48.296;8.874;2022-07-22T15:06:11;34.80;1.00
13686;DHT22;6915;48.296;8.874;2022-07-22T15:08:37;34.50;1.00
13686;DHT22;6915;48.296;8.874;2022-07-22T15:11:06;34.50;1.00
13686;DHT22;6915;48.296;8.874;2022-07-22T15:13:33;34.80;1.00
13686;DHT22;6915;48.296;8.874;2022-07-22T15:16:00;35.00;1.00
13686;DHT22;6915;48.296;8.874;2022-07-22T15:18:27;35.50;1.00
13686;DHT22;6915;48.296;8.874;2022-07-22T15:20:54;35.50;1.00
13686;DHT22;6915;48.296;8.874;2022-07-22T15:23:22;35.00;1.00
13686;DHT22;6915;48.296;8.874;2022-07-22T15:25:51;34.40;1.00
13686;DHT22;6915;48.296;8.874;2022-07-22T15:28:20;34.00;1.00
13686;DHT22;6915;48.296;8.874;2022-07-22T15:30:47;33.80;1.00
13686;DHT22;6915;48.296;8.874;2022-07-22T15:33:14;33.40;1.00
13686;DHT22;6915;48.296;8.874;2022-07-22T15:35:41;33.10;1.00
13686;DHT22;6915;48.296;8.874;2022-07-22T15:38:08;33.00;1.00
13686;DHT22;6915;48.296;8.874;2022-07-22T15:40:35;33.40;1.00
13686;DHT22;6915;48.296;8.874;2022-07-22T15:43:03;33.70;1.00
13686;DHT22;6915;48.296;8.874;2022-07-22T15:45:37;33.40;1.00
13686;DHT22;6915;48.296;8.874;2022-07-22T15:48:05;33.50;1.00
13686;DHT22;6915;48.296;8.874;2022-07-22T15:50:32;33.00;1.00
13686;DHT22;6915;48.296;8.874;2022-07-22T15:53:00;32.50;1.00
13686;DHT22;6915;48.296;8.874;2022-07-22T15:55:27;32.30;1.00
13686;DHT22;6915;48.296;8.874;2022-07-22T15:57:55;32.00;1.00
13686;DHT22;6915;48.296;8.874;2022-07-22T16:00:41;31.80;1.00